createdAt,value
2022-08-24T00:01:57.900Z,4.88
2022-08-24T00:04:28.291Z,4.22
2022-08-24T00:07:00.803Z,5.30
2022-08-24T00:09:29.363Z,4.72
2022-08-24T00:11:57.257Z,4.78
2022-08-24T00:14:25.392Z,4.57
2022-08-24T00:16:54.252Z,4.88
2022-08-24T00:19:22.070Z,4.80
2022-08-24T00:21:50.737Z,4.97
2022-08-24T00:24:21.375Z,4.45
2022-08-24T00:26:49.003Z,7.88
2022-08-24T00:29:17.995Z,4.70
2022-08-24T00:31:48.374Z,4.65
2022-08-24T00:34:17.870Z,4.68
2022-08-24T00:36:46.407Z,4.78
2022-08-24T00:39:14.436Z,4.20
2022-08-24T00:41:47.244Z,4.40
2022-08-24T00:44:17.166Z,4.50
2022-08-24T00:46:53.072Z,4.60
2022-08-24T00:49:26.294Z,4.68
2022-08-24T00:52:04.702Z,4.38
2022-08-24T00:54:34.772Z,4.65
2022-08-24T00:57:05.789Z,5.03
2022-08-24T01:02:21.268Z,4.63
2022-08-24T01:04:56.045Z,4.25
2022-08-24T01:07:28.493Z,4.38
2022-08-24T01:10:09.086Z,4.53
2022-08-24T01:12:38.992Z,4.45
2022-08-24T01:15:09.676Z,4.70
2022-08-24T01:17:56.772Z,4.22
2022-08-24T01:20:26.492Z,4.10
2022-08-24T01:23:23.236Z,4.88
2022-08-24T01:25:51.152Z,4.35
2022-08-24T01:28:23.426Z,4.40
2022-08-24T01:30:55.978Z,4.32
2022-08-24T01:33:28.622Z,4.15
2022-08-24T01:36:06.499Z,4.53
2022-08-24T01:38:38.570Z,4.13
2022-08-24T01:41:08.769Z,4.40
2022-08-24T01:43:40.374Z,4.22
2022-08-24T01:46:09.868Z,4.18
2022-08-24T01:48:37.817Z,3.90
2022-08-24T01:51:05.417Z,4.25
2022-08-24T01:53:35.202Z,4.05
2022-08-24T01:56:03.318Z,4.55
2022-08-24T01:58:30.719Z,3.97
2022-08-24T02:00:58.649Z,3.90
2022-08-24T02:03:30.240Z,4.22
2022-08-24T02:05:59.041Z,4.15
2022-08-24T02:08:27.705Z,4.28
2022-08-24T02:10:56.843Z,4.25
2022-08-24T02:13:25.202Z,4.40
2022-08-24T02:15:52.878Z,4.72
2022-08-24T02:18:20.388Z,3.65
2022-08-24T02:20:48.012Z,3.80
2022-08-24T02:23:15.443Z,4.38
2022-08-24T02:25:43.248Z,4.07
2022-08-24T02:31:37.161Z,3.55
2022-08-24T02:34:04.969Z,3.92
2022-08-24T02:36:32.705Z,4.00
2022-08-24T02:39:00.263Z,3.95
2022-08-24T02:41:28.302Z,3.92
2022-08-24T02:43:56.314Z,3.85
2022-08-24T02:46:27.983Z,3.70
2022-08-24T02:49:01.802Z,3.55
2022-08-24T02:51:45.009Z,3.97
2022-08-24T02:54:18.978Z,3.80
2022-08-24T02:56:47.791Z,4.20
2022-08-24T02:59:16.946Z,3.97
2022-08-24T03:01:45.438Z,4.05
2022-08-24T03:04:13.758Z,3.63
2022-08-24T03:06:42.777Z,4.20
2022-08-24T03:09:11.743Z,4.43
2022-08-24T03:11:39.777Z,3.92
2022-08-24T03:14:13.502Z,4.00
2022-08-24T03:16:41.426Z,3.90
2022-08-24T03:19:08.882Z,4.07
2022-08-24T03:21:36.508Z,3.83
2022-08-24T03:24:05.382Z,3.70
2022-08-24T03:26:37.321Z,4.20
2022-08-24T03:29:05.745Z,4.32
2022-08-24T03:31:34.617Z,4.03
2022-08-24T03:34:02.126Z,3.70
2022-08-24T03:36:29.915Z,4.25
2022-08-24T03:38:59.071Z,4.13
2022-08-24T03:41:27.484Z,3.80
2022-08-24T03:43:56.565Z,3.67
2022-08-24T03:46:27.376Z,4.05
2022-08-24T03:48:56.037Z,4.03
2022-08-24T03:51:26.542Z,4.18
2022-08-24T03:53:56.392Z,4.85
2022-08-24T03:56:30.874Z,4.43
2022-08-24T03:58:59.109Z,4.93
2022-08-24T04:01:27.130Z,4.32
2022-08-24T04:04:00.458Z,4.63
2022-08-24T04:06:28.491Z,4.43
2022-08-24T04:08:56.976Z,4.55
2022-08-24T04:11:28.683Z,4.63
2022-08-24T04:13:58.298Z,4.15
2022-08-24T04:16:26.946Z,4.60
2022-08-24T04:18:59.092Z,4.82
2022-08-24T04:21:29.651Z,5.10
2022-08-24T04:23:58.279Z,4.20
2022-08-24T04:26:44.648Z,4.65
2022-08-24T04:29:15.496Z,4.60
2022-08-24T04:31:46.606Z,4.32
2022-08-24T04:34:16.724Z,4.28
2022-08-24T04:36:45.270Z,4.25
2022-08-24T04:39:12.962Z,4.32
2022-08-24T04:41:42.724Z,4.35
2022-08-24T04:44:10.512Z,4.47
2022-08-24T04:46:39.350Z,4.45
2022-08-24T04:49:06.972Z,4.35
2022-08-24T04:51:36.700Z,4.88
2022-08-24T04:54:06.370Z,4.75
2022-08-24T04:56:35.408Z,4.68
2022-08-24T04:59:10.237Z,4.63
2022-08-24T05:01:44.602Z,4.60
2022-08-24T05:04:14.088Z,5.88
2022-08-24T05:06:43.111Z,4.82
2022-08-24T05:09:11.382Z,5.03
2022-08-24T05:11:49.613Z,4.57
2022-08-24T05:14:17.949Z,5.60
2022-08-24T05:16:52.922Z,4.43
2022-08-24T05:19:23.471Z,4.55
2022-08-24T05:21:51.326Z,4.68
2022-08-24T05:24:45.763Z,5.22
2022-08-24T05:27:23.146Z,4.57
2022-08-24T05:30:01.526Z,4.55
2022-08-24T05:32:29.709Z,5.43
2022-08-24T05:35:05.018Z,5.45
2022-08-24T05:37:37.819Z,5.35
2022-08-24T05:40:09.861Z,4.60
2022-08-24T05:42:39.090Z,5.20
2022-08-24T05:45:08.087Z,4.65
2022-08-24T05:47:40.672Z,4.55
2022-08-24T05:50:09.226Z,4.30
2022-08-24T05:52:40.232Z,4.82
2022-08-24T05:55:10.149Z,4.60
2022-08-24T05:57:39.303Z,4.85
2022-08-24T06:00:10.550Z,4.78
2022-08-24T06:02:39.076Z,4.75
2022-08-24T06:05:07.170Z,4.88
2022-08-24T06:07:35.414Z,3.42
2022-08-24T06:10:32.780Z,3.33
2022-08-24T06:12:54.873Z,3.55
2022-08-24T06:15:23.195Z,3.80
2022-08-24T06:17:53.655Z,3.78
2022-08-24T06:20:21.642Z,4.43
2022-08-24T06:22:49.661Z,3.45
2022-08-24T06:25:36.205Z,3.42
2022-08-24T06:28:06.528Z,3.20
2022-08-24T06:30:37.795Z,3.25
2022-08-24T06:33:11.700Z,3.42
2022-08-24T06:35:47.061Z,3.10
2022-08-24T06:38:17.457Z,3.00
2022-08-24T06:40:52.862Z,3.28
2022-08-24T06:43:37.353Z,3.38
2022-08-24T06:46:07.605Z,3.72
2022-08-24T06:48:38.311Z,3.20
2022-08-24T06:51:17.536Z,3.17
2022-08-24T06:53:48.030Z,3.15
2022-08-24T06:56:17.130Z,3.78
2022-08-24T06:58:45.696Z,6.47
2022-08-24T07:01:17.910Z,2.42
2022-08-24T07:03:46.669Z,3.10
2022-08-24T07:06:15.497Z,3.13
2022-08-24T07:08:45.331Z,2.80
2022-08-24T07:11:23.408Z,3.08
2022-08-24T07:13:53.922Z,2.90
2022-08-24T07:16:24.572Z,2.80
2022-08-24T07:23:09.619Z,2.95
2022-08-24T07:25:42.842Z,2.88
2022-08-24T07:28:31.616Z,3.03
2022-08-24T07:31:01.039Z,2.95
2022-08-24T07:33:33.623Z,2.90
2022-08-24T07:36:07.594Z,3.13
2022-08-24T07:38:36.906Z,3.25
2022-08-24T07:41:36.539Z,3.17
2022-08-24T07:43:58.379Z,3.30
2022-08-24T07:46:26.420Z,3.03
2022-08-24T07:49:10.910Z,3.03
2022-08-24T07:51:47.019Z,2.97
2022-08-24T07:54:16.469Z,3.28
2022-08-24T07:56:45.966Z,3.20
2022-08-24T07:59:14.086Z,3.80
2022-08-24T08:01:42.515Z,2.88
2022-08-24T08:04:12.419Z,3.08
2022-08-24T08:06:47.451Z,2.83
2022-08-24T08:09:15.356Z,3.47
2022-08-24T08:11:45.571Z,3.00
2022-08-24T08:14:15.040Z,3.38
2022-08-24T08:16:43.095Z,3.25
2022-08-24T08:19:11.367Z,3.03
2022-08-24T08:22:07.160Z,3.08
2022-08-24T08:24:41.270Z,3.10
2022-08-24T08:27:11.365Z,3.80
2022-08-24T08:29:40.823Z,2.90
2022-08-24T08:32:12.223Z,3.28
2022-08-24T08:35:00.161Z,3.20
2022-08-24T08:37:33.535Z,3.15
2022-08-24T08:40:02.459Z,3.05
2022-08-24T08:42:45.254Z,3.08
2022-08-24T08:45:25.705Z,3.00
2022-08-24T08:51:12.168Z,2.80
2022-08-24T08:54:21.056Z,2.70
2022-08-24T08:57:17.434Z,2.50
2022-08-24T09:00:16.272Z,2.13
2022-08-24T09:03:00.229Z,2.20
2022-08-24T09:06:02.229Z,2.50
2022-08-24T09:08:51.871Z,1.98
2022-08-24T09:11:41.524Z,2.03
2022-08-24T09:14:43.552Z,2.75
2022-08-24T09:17:41.312Z,3.22
2022-08-24T09:20:26.854Z,2.25
2022-08-24T09:23:31.553Z,2.13
2022-08-24T09:26:27.176Z,1.98
2022-08-24T09:29:11.219Z,1.63
2022-08-24T09:31:48.660Z,2.22
2022-08-24T09:34:38.248Z,1.88
2022-08-24T09:37:28.936Z,2.35
2022-08-24T09:40:17.618Z,1.75
2022-08-24T09:42:53.581Z,1.75
2022-08-24T09:45:44.867Z,1.90
2022-08-24T09:48:45.304Z,2.00
2022-08-24T09:51:52.013Z,1.85
2022-08-24T09:54:36.929Z,1.90
2022-08-24T09:57:59.441Z,2.33
2022-08-24T10:00:35.303Z,2.10
2022-08-24T10:03:44.171Z,2.15
2022-08-24T10:06:29.436Z,3.05
2022-08-24T10:09:24.204Z,2.30
2022-08-24T10:12:19.044Z,2.10
2022-08-24T10:15:32.577Z,2.13
2022-08-24T10:18:16.723Z,1.70
2022-08-24T10:21:06.804Z,2.17
2022-08-24T10:23:51.188Z,1.92
2022-08-24T10:26:39.144Z,2.40
2022-08-24T10:32:48.723Z,1.60
2022-08-24T10:35:19.902Z,1.77
2022-08-24T10:38:19.494Z,1.80
2022-08-24T10:41:02.853Z,2.17
2022-08-24T10:43:51.503Z,2.10
2022-08-24T10:46:39.915Z,1.73
2022-08-24T10:49:16.113Z,1.80
2022-08-24T10:52:13.869Z,1.92
2022-08-24T10:54:44.617Z,1.98
2022-08-24T10:57:59.784Z,2.00
2022-08-24T11:00:31.089Z,2.30
2022-08-24T11:03:28.493Z,2.30
2022-08-24T11:05:57.714Z,2.30
2022-08-24T11:08:35.731Z,2.10
2022-08-24T11:11:26.666Z,1.92
2022-08-24T11:14:13.361Z,2.13
2022-08-24T11:16:57.926Z,1.77
2022-08-24T11:19:31.796Z,1.75
2022-08-24T11:25:14.781Z,1.90
2022-08-24T11:27:46.587Z,2.40
2022-08-24T11:30:20.286Z,2.08
2022-08-24T11:32:56.738Z,1.77
2022-08-24T11:36:02.332Z,2.20
2022-08-24T11:38:35.119Z,2.03
2022-08-24T11:41:26.643Z,2.17
2022-08-24T11:44:33.217Z,2.00
2022-08-24T11:47:30.060Z,1.75
2022-08-24T11:50:22.611Z,1.45
2022-08-24T11:52:59.058Z,1.98
2022-08-24T11:55:57.246Z,1.85
2022-08-24T11:58:57.120Z,2.20
2022-08-24T12:01:57.583Z,2.13
2022-08-24T12:04:47.015Z,2.83
2022-08-24T12:07:34.301Z,3.47
2022-08-24T12:10:07.804Z,3.20
2022-08-24T12:12:46.585Z,3.47
2022-08-24T12:15:41.346Z,3.65
2022-08-24T12:18:38.453Z,3.60
2022-08-24T12:21:12.871Z,3.17
2022-08-24T12:23:59.767Z,4.05
2022-08-24T12:26:49.575Z,4.03
2022-08-24T12:29:46.674Z,3.75
2022-08-24T12:33:22.280Z,3.95
2022-08-24T12:35:55.374Z,3.95
2022-08-24T12:38:39.962Z,3.88
2022-08-24T12:41:36.774Z,4.00
2022-08-24T12:44:14.766Z,3.40
2022-08-24T12:46:49.731Z,3.33
2022-08-24T12:49:29.923Z,2.65
2022-08-24T12:52:30.812Z,2.67
2022-08-24T12:55:10.568Z,2.80
2022-08-24T12:57:59.533Z,2.25
2022-08-24T13:00:37.493Z,2.47
2022-08-24T13:03:11.873Z,2.55
2022-08-24T13:05:46.063Z,2.13
2022-08-24T13:08:35.251Z,2.45
2022-08-24T13:11:32.926Z,2.28
2022-08-24T13:17:23.817Z,2.30
2022-08-24T13:20:34.245Z,2.60
2022-08-24T13:23:11.695Z,2.70
2022-08-24T13:25:55.219Z,4.22
2022-08-24T13:28:44.258Z,3.10
2022-08-24T13:31:18.129Z,2.33
2022-08-24T13:34:18.028Z,2.13
2022-08-24T13:37:05.553Z,1.90
2022-08-24T13:40:02.089Z,2.53
2022-08-24T13:42:59.845Z,2.00
2022-08-24T13:45:49.934Z,2.05
2022-08-24T13:48:41.571Z,1.80
2022-08-24T13:51:21.798Z,1.80
2022-08-24T13:53:55.697Z,1.90
2022-08-24T13:56:57.246Z,2.00
2022-08-24T13:59:57.358Z,2.33
2022-08-24T14:03:00.415Z,1.60
2022-08-24T14:05:54.226Z,1.60
2022-08-24T14:09:00.001Z,1.88
2022-08-24T14:11:51.318Z,1.65
2022-08-24T14:14:52.695Z,1.73
2022-08-24T14:17:47.649Z,2.00
2022-08-24T14:20:21.982Z,1.60
2022-08-24T14:23:23.843Z,1.42
2022-08-24T14:26:29.900Z,1.98
2022-08-24T14:29:15.860Z,1.45
2022-08-24T14:32:11.855Z,2.00
2022-08-24T14:34:54.330Z,1.60
2022-08-24T14:37:46.767Z,1.20
2022-08-24T14:40:34.757Z,2.67
2022-08-24T14:43:19.390Z,1.70
2022-08-24T14:46:11.022Z,1.60
2022-08-24T14:48:55.107Z,1.50
2022-08-24T14:51:41.916Z,1.38
2022-08-24T14:54:30.097Z,1.83
2022-08-24T14:57:40.303Z,1.48
2022-08-24T15:00:20.801Z,2.25
2022-08-24T15:03:00.361Z,2.15
2022-08-24T15:05:34.931Z,2.10
2022-08-24T15:08:28.214Z,2.10
2022-08-24T15:11:16.471Z,1.90
2022-08-24T15:14:06.735Z,2.05
2022-08-24T15:16:53.744Z,2.03
2022-08-24T15:19:36.778Z,2.05
2022-08-24T15:22:08.967Z,1.98
2022-08-24T15:24:50.115Z,1.60
2022-08-24T15:27:25.730Z,1.90
2022-08-24T15:29:56.898Z,1.70
2022-08-24T15:32:39.750Z,1.70
2022-08-24T15:35:07.656Z,1.95
2022-08-24T15:37:42.788Z,1.73
2022-08-24T15:40:23.999Z,2.08
2022-08-24T15:42:51.802Z,1.60
2022-08-24T15:45:21.194Z,1.85
2022-08-24T15:47:51.900Z,1.90
2022-08-24T15:50:23.964Z,1.70
2022-08-24T15:52:56.457Z,2.03
2022-08-24T15:55:35.384Z,2.17
2022-08-24T15:58:29.032Z,2.33
2022-08-24T16:01:33.265Z,2.70
2022-08-24T16:04:08.338Z,3.08
2022-08-24T16:06:58.018Z,4.28
2022-08-24T16:09:25.462Z,4.05
2022-08-24T16:12:08.487Z,4.65
2022-08-24T16:14:46.825Z,5.07
2022-08-24T16:17:42.467Z,5.95
2022-08-24T16:20:26.143Z,6.22
2022-08-24T16:23:00.718Z,6.38
2022-08-24T16:25:31.196Z,7.03
2022-08-24T16:28:07.740Z,7.32
2022-08-24T16:30:50.951Z,7.72
2022-08-24T16:33:30.609Z,7.60
2022-08-24T16:35:59.530Z,8.82
2022-08-24T16:38:30.363Z,8.40
2022-08-24T16:41:01.099Z,8.60
2022-08-24T16:43:31.564Z,8.45
2022-08-24T16:46:02.102Z,9.05
2022-08-24T16:48:29.935Z,8.75
2022-08-24T16:50:57.954Z,8.90
2022-08-24T16:53:36.721Z,8.50
2022-08-24T16:56:08.928Z,8.90
2022-08-24T16:58:37.687Z,9.27
2022-08-24T17:01:11.426Z,8.45
2022-08-24T17:03:39.543Z,8.88
2022-08-24T17:06:07.627Z,9.30
2022-08-24T17:08:36.441Z,9.23
2022-08-24T17:11:05.317Z,8.30
2022-08-24T17:13:51.343Z,9.00
2022-08-24T17:16:22.070Z,8.38
2022-08-24T17:18:53.860Z,7.82
2022-08-24T17:21:23.434Z,8.05
2022-08-24T17:23:51.246Z,7.88
2022-08-24T17:26:23.349Z,6.95
2022-08-24T17:28:52.874Z,6.97
2022-08-24T17:31:31.028Z,6.68
2022-08-24T17:33:59.458Z,6.43
2022-08-24T17:36:32.268Z,7.05
2022-08-24T17:39:02.536Z,5.43
2022-08-24T17:41:36.375Z,5.20
2022-08-24T17:44:05.030Z,5.53
2022-08-24T17:46:40.890Z,5.28
2022-08-24T17:50:05.434Z,4.50
2022-08-24T17:52:29.764Z,5.07
2022-08-24T17:55:02.110Z,4.40
2022-08-24T17:57:48.685Z,4.93
2022-08-24T18:00:23.058Z,3.72
2022-08-24T18:02:52.761Z,3.65
2022-08-24T18:05:21.475Z,3.80
2022-08-24T18:07:54.258Z,3.85
2022-08-24T18:13:54.998Z,3.60
2022-08-24T18:16:28.428Z,3.30
2022-08-24T18:18:58.171Z,3.15
2022-08-24T18:21:30.868Z,2.97
2022-08-24T18:24:04.399Z,3.33
2022-08-24T18:26:34.203Z,4.18
2022-08-24T18:29:17.967Z,3.13
2022-08-24T18:32:01.940Z,3.03
2022-08-24T18:34:41.843Z,3.50
2022-08-24T18:37:17.569Z,3.00
2022-08-24T18:39:50.091Z,3.25
2022-08-24T18:42:18.551Z,3.60
2022-08-24T18:44:50.392Z,2.70
2022-08-24T18:47:23.782Z,2.95
2022-08-24T18:49:53.387Z,2.97
2022-08-24T18:52:22.000Z,2.83
2022-08-24T18:54:50.637Z,3.47
2022-08-24T18:57:21.311Z,3.97
2022-08-24T18:59:49.622Z,4.85
2022-08-24T19:02:30.603Z,3.75
2022-08-24T19:05:05.611Z,4.88
2022-08-24T19:07:38.815Z,5.65
2022-08-24T19:10:14.419Z,4.32
2022-08-24T19:12:47.906Z,3.67
2022-08-24T19:15:39.487Z,4.50
2022-08-24T19:18:13.966Z,4.50
2022-08-24T19:20:49.499Z,5.57
2022-08-24T19:23:30.420Z,4.63
2022-08-24T19:25:59.333Z,3.75
2022-08-24T19:28:33.474Z,5.32
2022-08-24T19:31:04.988Z,3.67
2022-08-24T19:33:38.054Z,4.00
2022-08-24T19:36:13.786Z,4.68
2022-08-24T19:38:41.934Z,5.05
2022-08-24T19:41:12.552Z,4.57
2022-08-24T19:44:01.413Z,4.00
2022-08-24T19:46:29.793Z,4.07
2022-08-24T19:48:58.556Z,4.30
2022-08-24T19:51:29.106Z,4.43
2022-08-24T19:54:00.643Z,4.50
2022-08-24T19:56:28.585Z,4.35
2022-08-24T19:59:08.535Z,4.35
2022-08-24T20:01:37.894Z,4.20
2022-08-24T20:04:08.494Z,4.05
2022-08-24T20:06:37.719Z,3.67
2022-08-24T20:09:06.329Z,4.10
2022-08-24T20:11:35.197Z,4.32
2022-08-24T20:14:03.743Z,4.35
2022-08-24T20:16:39.537Z,4.15
2022-08-24T20:19:07.554Z,4.78
2022-08-24T20:21:40.091Z,4.30
2022-08-24T20:24:10.812Z,3.53
2022-08-24T20:26:45.022Z,3.65
2022-08-24T20:29:17.039Z,3.72
2022-08-24T20:31:48.286Z,3.88
2022-08-24T20:34:18.856Z,3.65
2022-08-24T20:37:04.080Z,3.70
2022-08-24T20:39:35.668Z,3.80
2022-08-24T20:42:10.892Z,3.50
2022-08-24T20:44:44.961Z,3.55
2022-08-24T20:47:13.053Z,3.20
2022-08-24T20:49:40.888Z,3.63
2022-08-24T20:52:10.457Z,3.70
2022-08-24T20:54:39.965Z,3.42
2022-08-24T20:57:14.041Z,3.05
2022-08-24T20:59:41.794Z,3.40
2022-08-24T21:02:09.514Z,6.68
2022-08-24T21:04:37.980Z,3.50
2022-08-24T21:07:05.926Z,3.15
2022-08-24T21:09:33.876Z,11.27
2022-08-24T21:12:01.695Z,4.60
2022-08-24T21:14:29.513Z,4.30
2022-08-24T21:16:58.481Z,3.83
2022-08-24T21:19:26.201Z,3.10
2022-08-24T21:21:58.355Z,3.83
2022-08-24T21:24:26.232Z,3.67
2022-08-24T21:26:55.581Z,3.50
2022-08-24T21:29:23.473Z,3.60
2022-08-24T21:32:09.483Z,4.15
2022-08-24T21:34:40.408Z,3.30
2022-08-24T21:37:19.287Z,4.05
2022-08-24T21:39:47.504Z,4.13
2022-08-24T21:42:20.066Z,3.67
2022-08-24T21:44:50.368Z,3.83
2022-08-24T21:47:17.922Z,3.50
2022-08-24T21:49:45.637Z,4.10
2022-08-24T21:52:14.371Z,4.22
2022-08-24T21:54:42.465Z,3.70
2022-08-24T21:57:11.835Z,9.10
2022-08-24T21:59:39.611Z,5.15
2022-08-24T22:02:08.501Z,3.70
2022-08-24T22:04:41.289Z,7.50
2022-08-24T22:07:08.926Z,5.05
2022-08-24T22:09:40.284Z,4.25
2022-08-24T22:12:08.151Z,5.07
2022-08-24T22:14:36.210Z,4.65
2022-08-24T22:17:03.940Z,3.97
2022-08-24T22:19:32.018Z,4.10
2022-08-24T22:21:59.722Z,4.10
2022-08-24T22:24:28.129Z,4.75
2022-08-24T22:26:57.092Z,4.45
2022-08-24T22:29:24.692Z,4.38
2022-08-24T22:31:52.311Z,5.05
2022-08-24T22:34:20.837Z,4.70
2022-08-24T22:36:49.019Z,5.03
2022-08-24T22:39:16.914Z,4.90
2022-08-24T22:41:45.646Z,5.15
2022-08-24T22:44:22.274Z,5.30
2022-08-24T22:47:01.779Z,4.70
2022-08-24T22:49:32.820Z,5.00
2022-08-24T22:52:00.596Z,5.20
2022-08-24T22:54:28.900Z,4.78
2022-08-24T22:56:57.197Z,5.07
2022-08-24T22:59:31.457Z,5.25
2022-08-24T23:01:59.007Z,5.13
2022-08-24T23:04:32.830Z,5.10
2022-08-24T23:07:02.084Z,4.72
2022-08-24T23:09:44.409Z,4.85
2022-08-24T23:12:19.867Z,4.63
2022-08-24T23:14:50.404Z,5.22
2022-08-24T23:17:19.643Z,5.20
2022-08-24T23:20:05.340Z,4.82
2022-08-24T23:22:37.827Z,6.70
2022-08-24T23:25:07.841Z,5.00
2022-08-24T23:27:38.505Z,4.63
2022-08-24T23:30:15.839Z,4.97
2022-08-24T23:32:43.892Z,4.68
2022-08-24T23:35:11.343Z,4.80
2022-08-24T23:37:38.979Z,4.95
2022-08-24T23:40:07.531Z,4.93
2022-08-24T23:42:35.056Z,4.88
2022-08-24T23:45:02.512Z,4.72
2022-08-24T23:47:30.231Z,4.60
2022-08-24T23:50:06.841Z,5.43
2022-08-24T23:52:43.909Z,4.63
2022-08-24T23:55:20.995Z,4.80
2022-08-24T23:57:54.552Z,3.70
